Time;durP1;ratioP1;P1;durP2;ratioP2;P2;SDS_P1;SDS_P2;PMS_P1;PMS_P2;Temp;Humidity;BMP_temperature;BMP_pressure;BME280_temperature;BME280_humidity;BME280_pressure;Samples;Min_cycle;Max_cycle;Signal;HPM_P1;HPM_P2
2022/05/25 00:00:28;;;;;;;14.25;8.33;;;;;;;9.92;78.37;94350.66;1708196;83;21474;-50
2022/05/25 00:02:55;;;;;;;12.25;8.80;;;;;;;9.89;78.62;94350.19;1699868;82;21538;-50
2022/05/25 00:05:22;;;;;;;15.78;8.70;;;;;;;9.90;79.15;94344.07;1722106;82;21482;-52
2022/05/25 00:07:49;;;;;;;16.40;9.15;;;;;;;9.90;79.20;94338.58;1702038;82;21190;-50
2022/05/25 00:10:16;;;;;;;11.90;8.55;;;;;;;9.90;79.39;94350.34;1712771;83;20962;-50
2022/05/25 00:12:42;;;;;;;10.82;7.80;;;;;;;9.88;79.30;94352.78;1712409;82;20935;-50
2022/05/25 00:15:11;;;;;;;15.80;9.60;;;;;;;9.83;78.81;94348.48;1700331;82;21077;-51
2022/05/25 00:17:37;;;;;;;16.00;8.18;;;;;;;9.77;78.99;94354.41;1716140;82;21152;-50
2022/05/25 00:20:08;;;;;;;11.93;8.80;;;;;;;9.74;79.10;94348.42;1613326;86;20966;-50
2022/05/25 00:22:43;;;;;;;14.65;7.60;;;;;;;9.71;79.37;94353.45;1660773;85;20970;-49
2022/05/25 00:25:13;;;;;;;10.68;7.90;;;;;;;9.72;79.68;94357.73;1661221;85;21100;-51
2022/05/25 00:27:40;;;;;;;15.28;7.55;;;;;;;9.71;79.77;94357.57;1671044;84;21165;-50
2022/05/25 00:30:09;;;;;;;14.20;8.20;;;;;;;9.65;80.11;94356.64;1672166;85;21311;-50
2022/05/25 00:32:37;;;;;;;11.53;8.38;;;;;;;9.56;80.26;94360.69;1669605;84;21026;-50
2022/05/25 00:35:06;;;;;;;11.78;8.10;;;;;;;9.50;80.24;94362.50;1654970;85;21112;-51
2022/05/25 00:37:32;;;;;;;9.53;7.42;;;;;;;9.42;80.14;94359.87;1684407;84;21015;-50
2022/05/25 00:39:59;;;;;;;8.75;7.33;;;;;;;9.40;80.24;94363.67;1672264;84;21188;-50
2022/05/25 00:42:25;;;;;;;9.50;7.70;;;;;;;9.40;80.40;94369.91;1646551;85;21261;-50
2022/05/25 00:44:54;;;;;;;10.53;7.67;;;;;;;9.41;80.43;94370.08;1644256;84;21171;-50
2022/05/25 00:47:24;;;;;;;16.37;8.43;;;;;;;9.41;80.33;94369.33;1664718;84;21453;-50
2022/05/25 00:49:50;;;;;;;11.48;8.40;;;;;;;9.37;80.64;94372.19;1679405;84;21553;-51
2022/05/25 00:52:17;;;;;;;11.43;7.80;;;;;;;9.30;80.45;94373.05;1678626;84;21054;-50
2022/05/25 00:54:57;;;;;;;11.57;7.95;;;;;;;9.23;80.54;94378.81;1643107;84;21279;-49
2022/05/25 00:57:42;;;;;;;10.93;8.43;;;;;;;9.17;80.79;94376.46;1665905;84;20975;-51
2022/05/25 01:00:19;;;;;;;15.05;9.35;;;;;;;9.08;80.94;94371.67;1670756;84;21027;-50
2022/05/25 01:02:53;;;;;;;16.37;8.30;;;;;;;8.98;81.05;94377.53;1668624;84;21141;-50
2022/05/25 01:05:24;;;;;;;11.75;7.50;;;;;;;8.93;81.33;94379.48;1673572;84;21074;-50
2022/05/25 01:08:05;;;;;;;10.68;7.80;;;;;;;8.94;81.36;94375.53;1657135;84;21257;-50
2022/05/25 01:10:48;;;;;;;9.97;7.97;;;;;;;8.97;81.24;94373.27;1643006;86;21079;-50
2022/05/25 01:13:54;;;;;;;10.53;8.23;;;;;;;9.00;81.03;94384.71;1662027;84;21253;-50
2022/05/25 01:17:05;;;;;;;11.22;7.60;;;;;;;9.04;81.25;94381.27;1670857;84;21157;-51
2022/05/25 01:20:11;;;;;;;14.25;8.28;;;;;;;9.11;80.87;94383.74;1718359;81;21005;-51
2022/05/25 01:23:17;;;;;;;11.50;7.37;;;;;;;9.04;80.38;94384.00;1718548;82;21259;-51
2022/05/25 01:26:19;;;;;;;8.48;7.17;;;;;;;9.00;80.77;94387.45;1718662;82;21005;-50
2022/05/25 01:29:03;;;;;;;11.55;7.30;;;;;;;9.00;80.65;94392.94;1712370;82;21454;-51
2022/05/25 01:31:51;;;;;;;10.30;7.62;;;;;;;8.98;80.76;94390.66;1717349;82;21042;-51
2022/05/25 01:34:43;;;;;;;16.75;8.08;;;;;;;8.95;80.80;94394.89;1717963;83;21396;-50
2022/05/25 01:37:31;;;;;;;10.78;7.83;;;;;;;8.92;80.93;94384.81;1715001;82;21152;-50
2022/05/25 01:40:06;;;;;;;10.53;7.28;;;;;;;8.93;80.74;94379.48;1711204;82;21009;-51
2022/05/25 01:43:02;;;;;;;8.03;6.75;;;;;;;8.94;80.75;94389.24;1712730;82;21034;-51
2022/05/25 01:45:33;;;;;;;11.00;6.55;;;;;;;8.92;80.58;94386.94;1724061;82;21082;-51
2022/05/25 01:48:03;;;;;;;8.08;6.55;;;;;;;8.89;80.86;94385.08;1696009;83;21069;-49
2022/05/25 01:50:41;;;;;;;8.20;7.35;;;;;;;8.83;80.59;94383.97;1696733;82;21148;-50
2022/05/25 01:53:09;;;;;;;9.50;7.35;;;;;;;8.75;80.44;94379.92;1714400;82;20947;-51
2022/05/25 01:55:39;;;;;;;9.98;6.80;;;;;;;8.67;80.40;94380.80;1672922;82;21028;-50
2022/05/25 01:58:11;;;;;;;10.35;7.25;;;;;;;8.63;80.45;94383.48;1732291;82;20958;-50
2022/05/25 02:00:43;;;;;;;9.70;7.20;;;;;;;8.61;80.67;94379.80;1714726;82;21734;-51
2022/05/25 02:06:20;;;;;;;14.78;8.53;;;;;;;8.59;81.24;94391.83;1714356;82;20946;-50
2022/05/25 02:09:25;;;;;;;12.20;8.53;;;;;;;8.56;81.67;94392.71;1717684;82;21088;-51
2022/05/25 02:12:21;;;;;;;10.95;7.92;;;;;;;8.58;81.93;94390.30;1710166;83;21011;-49
2022/05/25 02:15:10;;;;;;;17.55;7.50;;;;;;;8.59;81.69;94387.71;1691611;82;20990;-49
2022/05/25 02:17:50;;;;;;;16.40;7.78;;;;;;;8.61;81.94;94394.13;1711736;82;21478;-50
2022/05/25 02:20:49;;;;;;;12.07;7.33;;;;;;;8.65;81.89;94391.41;1712033;82;20954;-50
2022/05/25 02:23:34;;;;;;;13.90;7.15;;;;;;;8.65;81.80;94400.26;1712521;82;21057;-50
2022/05/25 02:26:22;;;;;;;11.60;7.30;;;;;;;8.62;81.83;94401.90;1692647;83;20970;-50
2022/05/25 02:29:10;;;;;;;11.75;8.53;;;;;;;8.59;81.65;94400.05;1720787;82;20946;-51
2022/05/25 02:31:54;;;;;;;17.35;8.68;;;;;;;8.55;81.63;94403.52;1692977;82;21148;-50
2022/05/25 02:34:21;;;;;;;13.55;8.45;;;;;;;8.49;81.53;94401.77;1716709;82;20998;-50
2022/05/25 02:36:49;;;;;;;15.53;9.60;;;;;;;8.41;81.38;94405.34;1679771;82;21042;-50
2022/05/25 02:39:16;;;;;;;21.48;8.03;;;;;;;8.35;81.59;94400.27;1715100;81;20962;-50
2022/05/25 02:41:54;;;;;;;11.90;8.50;;;;;;;8.30;81.54;94404.94;1711497;82;20982;-51
2022/05/25 02:44:22;;;;;;;25.08;10.25;;;;;;;8.25;81.65;94409.58;1713789;82;21240;-51
2022/05/25 02:46:49;;;;;;;19.40;8.55;;;;;;;8.24;82.12;94419.63;1723482;82;21068;-51
2022/05/25 02:49:17;;;;;;;12.75;8.20;;;;;;;8.25;82.21;94414.31;1699609;82;21180;-49
2022/05/25 02:51:45;;;;;;;23.05;7.75;;;;;;;8.29;82.46;94419.83;1712733;82;21442;-51
2022/05/25 02:54:11;;;;;;;16.10;8.15;;;;;;;8.30;82.05;94410.42;1719538;80;21550;-50
2022/05/25 02:56:38;;;;;;;25.72;9.73;;;;;;;8.31;82.00;94409.21;1715375;82;21775;-50
2022/05/25 02:59:05;;;;;;;13.60;7.55;;;;;;;8.31;81.99;94405.11;1707887;82;21030;-51
2022/05/25 03:01:32;;;;;;;14.13;8.15;;;;;;;8.34;81.80;94410.29;1713789;82;21002;-49
2022/05/25 03:03:59;;;;;;;16.85;9.55;;;;;;;8.35;81.84;94418.08;1717196;82;21101;-50
2022/05/25 03:06:25;;;;;;;13.93;7.15;;;;;;;8.38;81.90;94419.16;1716635;82;20998;-49
2022/05/25 03:08:54;;;;;;;9.78;7.20;;;;;;;8.40;81.89;94417.52;1722756;82;21244;-50
2022/05/25 03:11:21;;;;;;;7.22;6.53;;;;;;;8.43;81.87;94415.27;1715280;82;21530;-51
2022/05/25 03:13:49;;;;;;;11.63;7.28;;;;;;;8.48;82.08;94410.62;1691211;82;21036;-51
2022/05/25 03:16:18;;;;;;;10.68;7.80;;;;;;;8.56;82.09;94411.91;1695223;83;21009;-50
2022/05/25 03:18:48;;;;;;;11.45;7.58;;;;;;;8.58;81.48;94405.99;1709358;83;20939;-51
2022/05/25 03:21:14;;;;;;;11.55;7.97;;;;;;;8.56;81.45;94413.27;1708758;82;21306;-50
2022/05/25 03:23:41;;;;;;;15.13;8.28;;;;;;;8.59;81.55;94407.52;1707281;82;21007;-50
2022/05/25 03:26:08;;;;;;;16.10;7.80;;;;;;;8.62;81.63;94414.23;1715342;82;21010;-50
2022/05/25 03:28:35;;;;;;;10.75;8.00;;;;;;;8.68;81.67;94416.60;1715020;82;20938;-50
2022/05/25 03:31:03;;;;;;;16.73;8.45;;;;;;;8.77;81.35;94420.79;1714061;82;20961;-49
2022/05/25 03:33:32;;;;;;;10.00;7.90;;;;;;;8.77;81.19;94420.04;1722314;82;21136;-50
2022/05/25 03:35:59;;;;;;;10.35;8.13;;;;;;;8.78;81.15;94422.94;1708755;82;21068;-49
2022/05/25 03:38:27;;;;;;;20.25;8.83;;;;;;;8.78;81.14;94420.20;1715712;83;21116;-50
2022/05/25 03:40:55;;;;;;;13.40;7.58;;;;;;;8.80;81.17;94423.26;1735059;82;21081;-50
2022/05/25 03:43:22;;;;;;;30.90;8.38;;;;;;;8.83;81.22;94432.72;1710605;81;21065;-50
2022/05/25 03:45:50;;;;;;;9.85;7.72;;;;;;;8.88;81.06;94434.92;1697650;82;21335;-49
2022/05/25 03:48:17;;;;;;;14.07;7.83;;;;;;;8.93;81.01;94434.35;1716681;82;21180;-49
2022/05/25 03:50:44;;;;;;;17.80;8.23;;;;;;;8.98;81.09;94426.91;1704294;83;20958;-50
2022/05/25 03:53:15;;;;;;;19.85;8.58;;;;;;;9.07;81.31;94420.90;1715024;82;20986;-50
2022/05/25 03:55:41;;;;;;;12.30;8.55;;;;;;;9.23;81.23;94428.21;1710244;81;20998;-50
2022/05/25 03:58:09;;;;;;;12.98;7.50;;;;;;;9.36;80.64;94428.90;1711886;82;21809;-50
2022/05/25 04:00:36;;;;;;;15.50;7.80;;;;;;;9.46;80.35;94427.14;1726160;82;20987;-50
2022/05/25 04:03:03;;;;;;;12.45;8.38;;;;;;;9.58;80.17;94431.81;1713482;82;20946;-51
2022/05/25 04:05:32;;;;;;;10.65;6.75;;;;;;;9.68;80.15;94423.80;1700851;83;21072;-50
2022/05/25 04:08:00;;;;;;;10.25;6.87;;;;;;;9.86;80.27;94435.48;1715658;82;21084;-51
2022/05/25 04:10:29;;;;;;;19.40;8.08;;;;;;;10.01;79.85;94437.86;1720580;82;21629;-50
2022/05/25 04:12:58;;;;;;;9.58;6.85;;;;;;;10.09;79.46;94440.52;1712065;82;20966;-50
2022/05/25 04:15:27;;;;;;;24.52;7.75;;;;;;;10.16;79.34;94433.39;1689560;82;21030;-52
2022/05/25 04:17:54;;;;;;;8.25;7.40;;;;;;;10.31;78.98;94435.75;1710543;81;21442;-50
2022/05/25 04:20:22;;;;;;;13.43;6.72;;;;;;;10.43;78.22;94441.14;1713252;82;21053;-51
2022/05/25 04:22:50;;;;;;;12.25;7.05;;;;;;;10.50;78.02;94435.34;1711908;82;21103;-53
2022/05/25 04:25:20;;;;;;;8.70;6.60;;;;;;;10.58;77.61;94439.36;1694634;82;20946;-55
2022/05/25 04:27:48;;;;;;;12.03;7.55;;;;;;;10.64;77.51;94437.53;1721604;82;21172;-57
2022/05/25 04:30:19;;;;;;;15.25;7.80;;;;;;;10.68;77.19;94437.39;1715274;82;21064;-56
2022/05/25 04:32:46;;;;;;;10.20;7.33;;;;;;;10.69;77.06;94443.05;1714542;82;21078;-50
2022/05/25 04:35:15;;;;;;;14.33;7.37;;;;;;;10.70;77.07;94437.70;1676568;82;21240;-50
2022/05/25 04:37:55;;;;;;;8.08;6.40;;;;;;;10.72;77.12;94435.26;1688358;82;21038;-50
2022/05/25 04:40:29;;;;;;;7.92;6.78;;;;;;;10.74;77.06;94438.47;1711575;82;21088;-50
2022/05/25 04:42:58;;;;;;;11.83;7.00;;;;;;;10.82;77.05;94443.83;1690904;83;21125;-50
2022/05/25 04:45:27;;;;;;;8.83;5.87;;;;;;;10.90;76.84;94435.45;1721431;82;21580;-49
2022/05/25 04:47:55;;;;;;;7.47;5.00;;;;;;;10.95;76.73;94436.21;1719738;83;21144;-51
2022/05/25 04:50:23;;;;;;;9.33;5.65;;;;;;;11.03;76.31;94438.84;1687009;82;21069;-50
2022/05/25 04:52:50;;;;;;;6.42;5.55;;;;;;;11.09;76.12;94437.00;1716990;81;20990;-50
2022/05/25 04:58:04;;;;;;;8.45;6.78;;;;;;;11.30;75.50;94442.97;1716850;82;21186;-51
2022/05/25 05:00:31;;;;;;;9.70;6.47;;;;;;;11.34;75.15;94434.57;1691817;82;21329;-51
2022/05/25 05:02:58;;;;;;;14.47;7.85;;;;;;;11.32;75.15;94430.14;1724649;81;21065;-48
2022/05/25 05:05:25;;;;;;;9.43;6.95;;;;;;;11.38;75.22;94428.29;1675218;82;21054;-49
2022/05/25 05:07:51;;;;;;;9.68;6.75;;;;;;;11.46;74.85;94430.28;1717855;82;21140;-49
2022/05/25 05:10:19;;;;;;;11.05;6.80;;;;;;;11.53;74.62;94434.09;1666300;82;20983;-48
2022/05/25 05:12:47;;;;;;;14.78;7.28;;;;;;;11.63;74.50;94439.78;1734955;82;21263;-49
2022/05/25 05:15:14;;;;;;;19.80;7.90;;;;;;;11.76;74.35;94433.50;1717616;81;20950;-48
2022/05/25 05:17:41;;;;;;;13.62;6.75;;;;;;;11.89;74.11;94434.70;1717944;82;21105;-49
2022/05/25 05:20:11;;;;;;;12.60;6.85;;;;;;;12.02;74.04;94431.13;1710394;82;21533;-48
2022/05/25 05:22:39;;;;;;;7.12;6.40;;;;;;;12.14;73.62;94441.98;1712010;82;21639;-49
2022/05/25 05:25:07;;;;;;;12.82;7.25;;;;;;;12.28;73.02;94433.66;1713420;82;21147;-51
2022/05/25 05:27:34;;;;;;;11.93;6.75;;;;;;;12.35;72.46;94435.48;1731627;82;21594;-53
2022/05/25 05:30:04;;;;;;;12.43;6.92;;;;;;;12.43;71.99;94438.04;1665938;82;21027;-52
2022/05/25 05:32:31;;;;;;;17.42;6.50;;;;;;;12.53;71.82;94431.87;1715112;80;21027;-54
2022/05/25 05:34:58;;;;;;;8.40;7.08;;;;;;;12.67;71.41;94430.56;1740624;80;21081;-52
2022/05/25 05:37:34;;;;;;;10.13;6.72;;;;;;;12.81;70.84;94425.73;1734149;80;21211;-50
2022/05/25 05:40:01;;;;;;;11.60;7.22;;;;;;;12.94;70.16;94427.70;1704464;82;21483;-51
2022/05/25 05:42:28;;;;;;;10.53;6.60;;;;;;;13.09;70.32;94427.14;1694117;82;21725;-53
2022/05/25 05:44:59;;;;;;;11.10;8.13;;;;;;;13.29;70.19;94426.67;1703353;82;22263;-55
2022/05/25 05:47:31;;;;;;;15.48;8.15;;;;;;;13.51;69.80;94423.59;1726560;80;21088;-54
2022/05/25 05:49:58;;;;;;;14.03;7.15;;;;;;;13.69;69.49;94419.29;1718368;81;21122;-55
2022/05/25 05:52:25;;;;;;;6.92;5.47;;;;;;;13.84;68.80;94419.44;1727915;82;21052;-55
2022/05/25 05:54:52;;;;;;;8.80;5.67;;;;;;;13.98;68.13;94420.70;1725759;81;20988;-52
2022/05/25 05:57:20;;;;;;;7.22;5.30;;;;;;;14.07;67.86;94424.14;1706023;80;37510;-51
2022/05/25 05:59:49;;;;;;;13.78;5.35;;;;;;;14.19;67.51;94427.25;1714478;80;20980;-52
2022/05/25 06:02:16;;;;;;;8.08;5.03;;;;;;;14.32;67.64;94432.52;1730968;81;21162;-53
2022/05/25 06:04:43;;;;;;;9.65;5.78;;;;;;;14.39;67.32;94432.12;1716380;81;21132;-66
2022/05/25 06:07:09;;;;;;;11.22;5.78;;;;;;;14.46;66.77;94437.39;1710872;80;20986;-58
2022/05/25 06:09:37;;;;;;;11.83;8.30;;;;;;;14.52;66.25;94434.72;1712690;81;21763;-57
2022/05/25 06:12:06;;;;;;;10.55;6.30;;;;;;;14.61;65.89;94432.60;1747538;80;21044;-54
2022/05/25 06:14:33;;;;;;;11.28;5.95;;;;;;;14.67;65.73;94434.08;1732333;80;21122;-60
2022/05/25 06:19:46;;;;;;;7.22;5.17;;;;;;;14.77;65.03;94423.78;1718379;80;21062;-59
2022/05/25 06:22:15;;;;;;;21.50;6.83;;;;;;;14.81;65.51;94420.19;1701798;81;21081;-59
2022/05/25 06:24:46;;;;;;;11.15;6.53;;;;;;;14.93;65.05;94422.48;1722621;81;21612;-56
2022/05/25 06:27:13;;;;;;;23.30;7.65;;;;;;;15.02;64.68;94421.73;1702491;81;21185;-59
2022/05/25 06:29:44;;;;;;;8.75;5.08;;;;;;;15.10;64.48;94425.64;1692705;80;21056;-59
2022/05/25 06:32:12;;;;;;;15.25;7.15;;;;;;;15.16;64.26;94427.86;1708494;81;21091;-57
2022/05/25 06:34:39;;;;;;;8.48;5.67;;;;;;;15.24;64.03;94427.59;1713454;82;21132;-58
2022/05/25 06:37:07;;;;;;;12.35;6.15;;;;;;;15.31;63.45;94424.44;1684022;81;21133;-57
2022/05/25 06:39:37;;;;;;;17.95;7.42;;;;;;;15.36;62.82;94419.57;1718724;81;21090;-56
2022/05/25 06:42:04;;;;;;;12.98;6.60;;;;;;;15.43;62.71;94425.33;1699565;80;21004;-57
2022/05/25 06:44:32;;;;;;;13.28;6.60;;;;;;;15.42;62.53;94425.97;1705543;81;21477;-57
2022/05/25 06:46:58;;;;;;;11.18;5.70;;;;;;;15.42;62.50;94421.03;1714660;81;21400;-57
2022/05/25 06:52:26;;;;;;;20.55;7.60;;;;;;;15.59;62.29;94422.77;1789412;77;25693;-49
2022/05/25 06:54:54;;;;;;;13.58;5.90;;;;;;;15.72;62.25;94425.92;1729696;80;20994;-53
2022/05/25 06:57:22;;;;;;;19.87;9.50;;;;;;;15.91;61.69;94420.20;1723150;81;21109;-49
2022/05/25 06:59:50;;;;;;;17.30;8.55;;;;;;;16.05;61.30;94423.50;1718588;80;21041;-51
2022/05/25 07:02:17;;;;;;;20.10;6.37;;;;;;;16.16;61.14;94415.30;1753396;79;20984;-47
2022/05/25 07:04:45;;;;;;;15.63;6.25;;;;;;;16.31;60.67;94410.36;1742759;80;21074;-48
2022/05/25 07:07:11;;;;;;;13.18;5.92;;;;;;;16.43;60.13;94408.63;1749728;80;21014;-48
2022/05/25 07:09:39;;;;;;;14.15;6.62;;;;;;;16.55;59.39;94409.47;1730937;80;21120;-51
2022/05/25 07:12:07;;;;;;;14.85;5.83;;;;;;;16.56;59.30;94406.18;1722514;81;21026;-49
2022/05/25 07:14:36;;;;;;;9.78;6.20;;;;;;;16.62;59.34;94411.78;1755601;79;21017;-50
2022/05/25 07:17:04;;;;;;;12.07;6.60;;;;;;;16.65;58.97;94404.63;1717805;82;21129;-50
2022/05/25 07:19:30;;;;;;;22.80;7.58;;;;;;;16.64;59.20;94414.83;1737538;79;21035;-49
2022/05/25 07:21:57;;;;;;;12.60;6.55;;;;;;;16.69;58.97;94419.04;1757403;80;21481;-48
2022/05/25 07:24:24;;;;;;;12.65;7.58;;;;;;;16.78;58.91;94422.26;1770201;78;21076;-48
2022/05/25 07:26:51;;;;;;;9.38;6.08;;;;;;;16.83;58.65;94422.91;1760151;78;21107;-50
2022/05/25 07:29:18;;;;;;;12.68;6.15;;;;;;;16.91;59.14;94426.78;1751035;78;21080;-48
2022/05/25 07:31:52;;;;;;;20.17;6.17;;;;;;;17.02;58.77;94419.27;1765607;78;21020;-48
2022/05/25 07:34:23;;;;;;;22.27;5.53;;;;;;;17.19;58.51;94416.57;1718881;80;21150;-49
2022/05/25 07:36:58;;;;;;;16.73;4.95;;;;;;;17.37;57.93;94418.35;1757154;80;20958;-48
2022/05/25 07:39:27;;;;;;;17.32;5.90;;;;;;;17.51;57.18;94413.23;1718180;81;21073;-48
2022/05/25 07:41:56;;;;;;;18.67;6.10;;;;;;;17.62;56.77;94405.56;1711743;81;21099;-49
2022/05/25 07:44:27;;;;;;;24.82;9.93;;;;;;;17.76;56.51;94402.56;1675844;83;21096;-48
2022/05/25 07:46:53;;;;;;;15.10;6.62;;;;;;;17.85;56.71;94395.37;1701408;82;21388;-48
2022/05/25 07:49:23;;;;;;;10.03;5.50;;;;;;;18.00;56.33;94386.82;1660317;84;21027;-51
2022/05/25 07:51:53;;;;;;;7.45;4.60;;;;;;;18.18;56.24;94391.27;1710580;81;21052;-48
2022/05/25 07:54:20;;;;;;;9.30;6.00;;;;;;;18.34;56.72;94387.15;1697012;81;21076;-49
2022/05/25 07:56:47;;;;;;;10.65;5.65;;;;;;;18.51;56.73;94386.52;1737911;80;21075;-49
2022/05/25 07:59:15;;;;;;;7.08;4.72;;;;;;;18.72;56.23;94372.45;1720021;80;21354;-52
2022/05/25 08:07:29;;;;;;;6.83;4.80;;;;;;;19.26;53.62;94368.05;1753402;80;21001;-48
2022/05/25 08:10:14;;;;;;;7.83;4.30;;;;;;;19.40;52.94;94365.56;1750989;80;21072;-47
2022/05/25 08:12:41;;;;;;;8.53;4.20;;;;;;;19.57;53.04;94369.05;1706157;81;21125;-47
2022/05/25 08:15:10;;;;;;;6.03;4.17;;;;;;;19.82;52.54;94361.58;1705794;80;21183;-47
2022/05/25 08:17:37;;;;;;;7.10;4.10;;;;;;;20.04;52.98;94349.67;1723866;79;21085;-48
2022/05/25 08:20:05;;;;;;;4.65;3.95;;;;;;;20.21;50.87;94346.13;1725395;81;21021;-50
2022/05/25 08:22:33;;;;;;;7.40;3.65;;;;;;;20.33;51.22;94341.33;1721659;80;21179;-47
2022/05/25 08:25:00;;;;;;;8.63;4.25;;;;;;;20.51;51.33;94335.72;1716146;81;21224;-47
2022/05/25 08:27:27;;;;;;;6.58;3.50;;;;;;;20.68;50.40;94329.34;1666847;83;21073;-49
2022/05/25 08:29:53;;;;;;;4.22;3.70;;;;;;;20.87;49.31;94327.41;1681793;82;21149;-50
2022/05/25 08:32:20;;;;;;;4.50;3.27;;;;;;;21.09;48.88;94327.20;1742023;80;20981;-47
2022/05/25 08:34:47;;;;;;;8.43;3.27;;;;;;;21.31;47.84;94328.34;1718613;81;21066;-49
2022/05/25 08:37:13;;;;;;;6.20;3.22;;;;;;;21.47;47.86;94332.33;1736325;80;21100;-47
2022/05/25 08:39:41;;;;;;;5.22;3.52;;;;;;;21.67;47.43;94326.91;1723954;80;21064;-49
2022/05/25 08:42:14;;;;;;;5.08;3.10;;;;;;;21.82;46.84;94330.02;1705385;81;20999;-47
2022/05/25 08:44:43;;;;;;;4.58;3.47;;;;;;;21.95;47.22;94331.47;1768892;79;21099;-48
2022/05/25 08:47:12;;;;;;;3.80;3.00;;;;;;;22.03;46.84;94327.53;1710194;80;21056;-50
2022/05/25 08:49:42;;;;;;;4.92;3.20;;;;;;;22.10;45.71;94324.88;1726035;80;22619;-49
2022/05/25 08:52:31;;;;;;;3.92;3.22;;;;;;;22.23;46.03;94329.14;1706896;82;21280;-49
2022/05/25 08:54:59;;;;;;;2.90;2.52;;;;;;;22.38;45.10;94330.86;1678844;83;20983;-50
2022/05/25 08:57:34;;;;;;;8.75;3.30;;;;;;;22.58;44.67;94324.66;1667162;83;21616;-51
2022/05/25 09:00:07;;;;;;;4.65;3.22;;;;;;;22.75;44.52;94331.39;1678289;83;21178;-51
2022/05/25 09:02:51;;;;;;;7.03;3.60;;;;;;;22.92;43.01;94321.40;1701320;82;21791;-52
2022/05/25 09:05:28;;;;;;;7.47;3.42;;;;;;;23.05;43.16;94324.20;1710775;81;21333;-48
2022/05/25 09:08:28;;;;;;;5.95;2.90;;;;;;;23.23;40.96;94323.37;1664915;81;21100;-48
2022/05/25 09:11:04;;;;;;;4.92;3.37;;;;;;;23.37;41.08;94322.09;1738692;78;22266;-51
2022/05/25 09:13:51;;;;;;;12.23;4.12;;;;;;;23.59;41.88;94321.64;1735981;79;21080;-48
2022/05/25 09:16:19;;;;;;;10.53;4.72;;;;;;;23.74;41.50;94320.44;1680241;82;21435;-50
2022/05/25 09:18:56;;;;;;;9.83;3.90;;;;;;;23.92;41.07;94314.61;1720374;79;21037;-48
2022/05/25 09:21:26;;;;;;;10.98;3.00;;;;;;;24.08;39.87;94313.59;1754496;79;21102;-50
2022/05/25 09:23:53;;;;;;;8.43;2.40;;;;;;;24.29;39.25;94305.95;1746447;79;21056;-47
2022/05/25 09:26:20;;;;;;;4.03;2.45;;;;;;;24.47;37.16;94307.05;1742734;80;21081;-50
2022/05/25 09:28:48;;;;;;;3.33;2.00;;;;;;;24.54;37.83;94300.78;1746182;79;21309;-50
2022/05/25 09:31:18;;;;;;;3.87;1.92;;;;;;;24.59;37.63;94294.26;1747963;80;21049;-50
2022/05/25 09:33:52;;;;;;;4.15;2.00;;;;;;;24.66;37.80;94287.94;1739676;79;21175;-48
2022/05/25 09:36:25;;;;;;;6.78;3.90;;;;;;;24.78;36.88;94291.98;1739167;80;21049;-49
2022/05/25 09:39:04;;;;;;;7.67;4.30;;;;;;;24.91;36.48;94289.09;1738596;80;21154;-48
2022/05/25 09:41:32;;;;;;;9.48;3.27;;;;;;;25.05;35.13;94285.63;1738209;80;21767;-47
2022/05/25 09:44:02;;;;;;;8.18;4.22;;;;;;;25.17;35.59;94290.30;1732840;80;21066;-51
2022/05/25 09:46:39;;;;;;;16.50;3.77;;;;;;;25.31;35.36;94276.25;1729201;80;21080;-50
2022/05/25 09:49:08;;;;;;;25.48;6.50;;;;;;;25.46;34.78;94290.43;1721717;80;21111;-48
2022/05/25 09:51:50;;;;;;;17.07;7.87;;;;;;;25.53;34.11;94279.84;1729373;80;21531;-49
2022/05/25 09:54:37;;;;;;;5.62;3.12;;;;;;;25.56;34.40;94278.73;1727560;80;21196;-50
2022/05/25 09:57:33;;;;;;;5.17;2.52;;;;;;;25.55;34.78;94275.17;1723384;81;22356;-50
2022/05/25 10:00:07;;;;;;;7.95;3.83;;;;;;;25.63;35.61;94265.35;1730544;80;21029;-50
2022/05/25 10:02:59;;;;;;;13.15;5.33;;;;;;;25.75;36.46;94263.70;1752639;79;21055;-48
2022/05/25 10:05:28;;;;;;;5.70;2.87;;;;;;;25.88;36.26;94257.95;1755126;80;21471;-49
2022/05/25 10:08:15;;;;;;;12.07;3.83;;;;;;;25.95;34.39;94256.58;1749791;79;21552;-50
2022/05/25 10:10:56;;;;;;;17.87;3.55;;;;;;;25.93;34.99;94257.13;1754347;79;21841;-50
2022/05/25 10:13:26;;;;;;;9.33;3.95;;;;;;;26.06;35.26;94250.58;1746639;79;21061;-50
2022/05/25 10:15:53;;;;;;;18.37;5.17;;;;;;;26.27;35.92;94249.13;1740803;80;21083;-48
2022/05/25 10:18:39;;;;;;;7.83;3.80;;;;;;;26.47;34.60;94245.39;1736258;80;21099;-48
2022/05/25 10:21:11;;;;;;;8.93;3.45;;;;;;;26.62;33.81;94249.67;1749652;80;21247;-51
2022/05/25 10:23:43;;;;;;;6.73;2.67;;;;;;;26.72;34.51;94246.39;1736227;80;21013;-50
2022/05/25 10:26:15;;;;;;;7.97;3.40;;;;;;;26.84;34.77;94240.45;1752425;78;21622;-48
2022/05/25 10:28:56;;;;;;;7.58;3.45;;;;;;;27.02;34.68;94241.39;1716229;81;21092;-49
2022/05/25 10:37:25;;;;;;;7.80;3.08;;;;;;;28.02;34.10;94240.01;1748405;80;21053;-48
2022/05/25 10:39:58;;;;;;;3.27;2.45;;;;;;;28.31;33.42;94235.52;1752298;79;21044;-49
2022/05/25 10:42:32;;;;;;;;;;;;;;;28.59;34.09;94227.39;1721968;80;21084;-51
2022/05/25 10:45:18;;;;;;;6.87;2.92;;;;;;;28.82;32.72;94225.81;1717773;80;20163;-49
2022/05/25 10:48:07;;;;;;;9.45;3.08;;;;;;;29.01;31.53;94221.80;1758330;79;21135;-51
2022/05/25 10:50:45;;;;;;;8.50;3.33;;;;;;;29.00;32.12;94224.55;1765270;78;21514;-50
2022/05/25 10:53:38;;;;;;;4.25;3.10;;;;;;;28.73;31.49;94217.97;1721404;80;21079;-52
2022/05/25 10:56:16;;;;;;;9.15;2.90;;;;;;;28.40;31.59;94220.76;1732679;79;21054;-49
2022/05/25 10:59:12;;;;;;;3.75;2.80;;;;;;;28.54;33.83;94217.06;1763826;79;20971;-49
2022/05/25 11:02:19;;;;;;;8.93;3.10;;;;;;;28.81;31.85;94207.31;1720383;80;21163;-48
2022/05/25 11:05:18;;;;;;;4.72;2.30;;;;;;;29.32;32.04;94208.16;1733730;80;21557;-50
2022/05/25 11:07:46;;;;;;;4.30;2.80;;;;;;;29.91;30.84;94208.16;1743998;80;21053;-48
2022/05/25 11:10:33;;;;;;;8.75;2.77;;;;;;;30.36;30.12;94208.23;1740581;80;20962;-50
2022/05/25 11:13:26;;;;;;;7.22;2.80;;;;;;;30.77;29.43;94206.59;1748997;80;21005;-51
2022/05/25 11:16:20;;;;;;;15.48;2.67;;;;;;;31.20;28.53;94214.20;1724901;81;21816;-47
2022/05/25 11:19:14;;;;;;;3.60;2.15;;;;;;;31.52;28.25;94207.36;1716005;83;21490;-49
2022/05/25 11:22:05;;;;;;;3.50;1.82;;;;;;;31.81;28.44;94203.20;1693800;81;21067;-50
2022/05/25 11:25:14;;;;;;;3.77;2.10;;;;;;;31.71;27.18;94212.43;1686121;81;21062;-49
2022/05/25 11:28:26;;;;;;;4.80;2.25;;;;;;;31.19;27.52;94197.77;1677150;83;21072;-51
2022/05/25 11:31:21;;;;;;;5.25;2.27;;;;;;;30.62;28.75;94192.63;1686995;82;21187;-52
2022/05/25 11:34:00;;;;;;;4.15;2.30;;;;;;;30.18;29.33;94193.36;1656606;84;21038;-51
2022/05/25 11:36:48;;;;;;;4.03;2.42;;;;;;;29.74;29.83;94192.50;1685490;82;21207;-50
2022/05/25 11:40:00;;;;;;;6.72;2.70;;;;;;;29.38;29.89;94193.09;1705050;80;21073;-51
2022/05/25 11:42:54;;;;;;;11.08;5.25;;;;;;;29.07;30.31;94193.97;1724712;80;21025;-52
2022/05/25 11:45:48;;;;;;;4.53;2.70;;;;;;;28.67;30.70;94192.70;1728250;80;21443;-48
2022/05/25 11:48:45;;;;;;;2.90;2.45;;;;;;;28.39;30.94;94192.37;1733387;80;21041;-52
2022/05/25 11:51:26;;;;;;;8.78;2.45;;;;;;;28.20;31.41;94192.09;1730775;80;22431;-50
2022/05/25 11:54:15;;;;;;;8.23;2.83;;;;;;;28.36;31.45;94191.43;1754858;80;21030;-51
2022/05/25 11:56:57;;;;;;;5.70;3.67;;;;;;;28.51;31.62;94183.48;1712827;80;20950;-54
2022/05/25 12:00:20;;;;;;;6.62;2.62;;;;;;;28.58;32.52;94181.27;1730373;80;21221;-48
2022/05/25 12:03:25;;;;;;;5.00;2.80;;;;;;;28.52;31.38;94183.56;1741496;80;21031;-53
2022/05/25 12:06:05;;;;;;;6.40;2.22;;;;;;;28.29;32.16;94184.38;1722495;80;21069;-53
2022/05/25 12:09:13;;;;;;;4.67;2.17;;;;;;;28.30;31.94;94178.80;1709692;80;21118;-50
2022/05/25 12:12:07;;;;;;;5.03;2.30;;;;;;;28.29;31.37;94177.30;1651381;83;21184;-48
2022/05/25 12:15:05;;;;;;;8.38;5.70;;;;;;;28.26;31.76;94174.22;1708302;81;21329;-48
2022/05/25 12:17:58;;;;;;;5.72;3.08;;;;;;;28.60;31.54;94175.10;1722466;82;21010;-50
2022/05/25 12:20:30;;;;;;;5.62;2.45;;;;;;;29.15;30.48;94170.57;1727002;80;21604;-49
2022/05/25 12:23:00;;;;;;;10.40;6.62;;;;;;;29.49;30.45;94169.92;1716196;80;21170;-48
2022/05/25 12:25:26;;;;;;;20.92;4.00;;;;;;;29.55;31.05;94166.83;1706052;82;21069;-53
2022/05/25 12:27:55;;;;;;;5.78;2.65;;;;;;;29.50;31.63;94169.27;1691725;82;20990;-47